createdAt,value
2023-01-21T00:00:23.017Z,98592.16
2023-01-21T00:02:49.661Z,98594.75
2023-01-21T00:05:16.341Z,98592.13
2023-01-21T00:07:43.009Z,98587.78
2023-01-21T00:10:10.282Z,98592.16
2023-01-21T00:12:38.011Z,98592.09
2023-01-21T00:15:05.068Z,98594.72
2023-01-21T00:17:35.842Z,98593.78
2023-01-21T00:20:04.074Z,98604.16
2023-01-21T00:22:30.873Z,98604.97
2023-01-21T00:24:57.545Z,98606.72
2023-01-21T00:27:24.338Z,98608.53
2023-01-21T00:29:51.001Z,98607.59
2023-01-21T00:32:17.714Z,98612.72
2023-01-21T00:34:44.393Z,98612.47
2023-01-21T00:37:11.093Z,98618.50
2023-01-21T00:39:42.645Z,98616.75
2023-01-21T00:42:11.174Z,98623.59
2023-01-21T00:44:38.554Z,98620.03
2023-01-21T00:47:05.960Z,98619.16
2023-01-21T00:49:32.719Z,98624.44
2023-01-21T00:51:59.703Z,98621.03
2023-01-21T00:54:26.350Z,98621.91
2023-01-21T00:56:52.994Z,98626.34
2023-01-21T00:59:19.800Z,98629.84
2023-01-21T01:01:46.439Z,98627.25
2023-01-21T01:04:13.491Z,98636.88
2023-01-21T01:06:40.407Z,98636.97
2023-01-21T01:09:07.588Z,98636.91
2023-01-21T01:11:34.225Z,98635.16
2023-01-21T01:14:00.881Z,98648.25
2023-01-21T01:16:27.713Z,98633.44
2023-01-21T01:18:55.716Z,98643.91
2023-01-21T01:21:22.946Z,98647.44
2023-01-21T01:23:52.333Z,98655.38
2023-01-21T01:26:21.077Z,98648.44
2023-01-21T01:28:48.397Z,98669.50
2023-01-21T01:31:17.841Z,98664.25
2023-01-21T01:33:45.340Z,98678.16
2023-01-21T01:36:15.090Z,98682.50
2023-01-21T01:38:42.548Z,98683.38
2023-01-21T01:41:15.007Z,98682.41
2023-01-21T01:43:55.752Z,98690.25
2023-01-21T01:46:23.674Z,98693.69
2023-01-21T01:49:06.853Z,98695.44
2023-01-21T01:51:42.741Z,98694.63
2023-01-21T01:54:11.991Z,98699.00
2023-01-21T01:56:43.282Z,98694.66
2023-01-21T01:59:10.550Z,98703.41
2023-01-21T02:01:37.811Z,98694.66
2023-01-21T02:04:10.131Z,98700.69
2023-01-21T02:06:38.463Z,98700.66
2023-01-21T02:09:05.502Z,98698.75
2023-01-21T02:11:32.232Z,98706.50
2023-01-21T02:13:59.887Z,98707.28
2023-01-21T02:16:46.251Z,98717.56
2023-01-21T02:19:31.667Z,98712.34
2023-01-21T02:22:04.448Z,98724.69
2023-01-21T02:24:49.788Z,98719.53
2023-01-21T02:27:49.983Z,98719.47
2023-01-21T02:30:46.561Z,98727.03
2023-01-21T02:33:25.301Z,98725.38
2023-01-21T02:36:26.167Z,98723.63
2023-01-21T02:39:26.719Z,98730.66
2023-01-21T02:42:27.308Z,98733.31
2023-01-21T02:45:05.552Z,98735.78
2023-01-21T02:48:06.339Z,98743.59
2023-01-21T02:50:54.539Z,98743.75
2023-01-21T02:53:27.681Z,98752.53
2023-01-21T02:55:56.150Z,98753.31
2023-01-21T02:58:28.980Z,98750.69
2023-01-21T03:01:03.872Z,98758.38
2023-01-21T03:03:57.999Z,98758.47
2023-01-21T03:06:38.955Z,98761.91
2023-01-21T03:09:15.009Z,98758.47
2023-01-21T03:11:49.246Z,98768.94
2023-01-21T03:14:41.912Z,98766.16
2023-01-21T03:17:16.996Z,98770.13
2023-01-21T03:19:53.796Z,98766.03
2023-01-21T03:22:26.081Z,98766.72
2023-01-21T03:24:55.678Z,98775.47
2023-01-21T03:27:26.913Z,98775.41
2023-01-21T03:29:58.812Z,98781.31
2023-01-21T03:32:28.688Z,98784.00
2023-01-21T03:34:56.865Z,98781.25
2023-01-21T03:37:46.811Z,98790.00
2023-01-21T03:40:27.509Z,98793.13
2023-01-21T03:42:56.307Z,98800.78
2023-01-21T03:45:50.680Z,98798.69
2023-01-21T03:49:19.118Z,98798.72
2023-01-21T03:51:51.438Z,98810.97
2023-01-21T03:54:18.302Z,98816.28
2023-01-21T03:56:44.989Z,98813.41
2023-01-21T03:59:11.647Z,98834.81
2023-01-21T04:01:39.536Z,98831.72
2023-01-21T04:04:06.481Z,98831.78
2023-01-21T04:06:33.614Z,98828.13
2023-01-21T04:09:00.353Z,98847.16
2023-01-21T04:11:26.962Z,98847.16
2023-01-21T04:13:53.607Z,98852.44
2023-01-21T04:16:20.339Z,98862.69
2023-01-21T04:18:47.678Z,98862.47
2023-01-21T04:21:14.839Z,98869.16
2023-01-21T04:23:41.523Z,98870.38
2023-01-21T04:26:08.231Z,98880.09
2023-01-21T04:28:34.910Z,98877.25
2023-01-21T04:31:01.698Z,98875.78
2023-01-21T04:33:28.423Z,98885.13
2023-01-21T04:36:01.153Z,98896.56
2023-01-21T04:38:27.927Z,98895.16
2023-01-21T04:40:54.571Z,98901.97
2023-01-21T04:43:21.457Z,98904.63
2023-01-21T04:45:49.994Z,98906.47
2023-01-21T04:48:17.669Z,98913.13
2023-01-21T04:50:45.743Z,98919.28
2023-01-21T04:53:12.453Z,98918.28
2023-01-21T04:55:39.117Z,98918.53
2023-01-21T04:58:06.006Z,98916.22
2023-01-21T05:00:32.670Z,98931.84
2023-01-21T05:02:59.335Z,98927.75
2023-01-21T05:05:25.998Z,98932.19
2023-01-21T05:07:54.003Z,98953.16
2023-01-21T05:10:21.204Z,98950.47
2023-01-21T05:12:48.556Z,98949.78
2023-01-21T05:15:15.431Z,98948.25
2023-01-21T05:17:42.508Z,98953.16
2023-01-21T05:20:09.975Z,98964.13
2023-01-21T05:22:36.660Z,98977.25
2023-01-21T05:25:03.806Z,98973.53
2023-01-21T05:27:30.514Z,98982.94
2023-01-21T05:29:57.305Z,98983.13
2023-01-21T05:32:24.243Z,98994.50
2023-01-21T05:34:50.951Z,98988.56
2023-01-21T05:37:17.718Z,98988.84
2023-01-21T05:39:44.627Z,98994.63
2023-01-21T05:42:11.246Z,98993.59
2023-01-21T05:44:37.927Z,99005.19
2023-01-21T05:47:04.738Z,99004.91
2023-01-21T05:49:31.432Z,99015.69
2023-01-21T05:51:58.054Z,99020.41
2023-01-21T05:54:24.804Z,99015.19
2023-01-21T05:56:51.565Z,99018.19
2023-01-21T05:59:18.187Z,99019.31
2023-01-21T06:01:44.848Z,99025.94
2023-01-21T06:04:11.487Z,99026.28
2023-01-21T06:06:38.160Z,99031.69
2023-01-21T06:09:04.852Z,99031.75
2023-01-21T06:11:31.548Z,99028.41
2023-01-21T06:13:58.388Z,99034.78
2023-01-21T06:16:24.986Z,99047.09
2023-01-21T06:18:51.620Z,99047.06
2023-01-21T06:21:18.207Z,99057.59
2023-01-21T06:23:44.887Z,99059.09
2023-01-21T06:26:11.531Z,99069.81
2023-01-21T06:28:38.224Z,99070.03
2023-01-21T06:31:05.053Z,99080.31
2023-01-21T06:33:31.759Z,99085.94
2023-01-21T06:35:58.442Z,99085.97
2023-01-21T06:38:25.097Z,99098.66
2023-01-21T06:40:51.738Z,99099.81
2023-01-21T06:43:18.581Z,99097.69
2023-01-21T06:45:45.354Z,99102.91
2023-01-21T06:48:11.935Z,99111.06
2023-01-21T06:50:38.718Z,99099.63
2023-01-21T06:53:05.349Z,99112.81
2023-01-21T06:55:32.010Z,99118.47
2023-01-21T06:57:58.682Z,99121.28
2023-01-21T07:00:25.346Z,99128.91
2023-01-21T07:02:59.361Z,99122.59
2023-01-21T07:05:26.922Z,99128.78
2023-01-21T07:07:55.722Z,99142.81
2023-01-21T07:10:23.612Z,99139.72
2023-01-21T07:12:50.583Z,99141.88
2023-01-21T07:15:17.647Z,99148.09
2023-01-21T07:17:44.693Z,99155.63
2023-01-21T07:20:14.345Z,99159.44
2023-01-21T07:22:40.944Z,99171.41
2023-01-21T07:25:08.015Z,99163.13
2023-01-21T07:27:34.635Z,99165.84
2023-01-21T07:30:01.403Z,99166.69
2023-01-21T07:32:28.184Z,99174.50
2023-01-21T07:34:54.819Z,99186.03
2023-01-21T07:37:21.418Z,99188.00
2023-01-21T07:39:48.040Z,99188.88
2023-01-21T07:42:14.729Z,99194.31
2023-01-21T07:44:42.688Z,99198.53
2023-01-21T07:47:10.468Z,99202.03
2023-01-21T07:49:37.535Z,99205.41
2023-01-21T07:52:04.436Z,99211.03
2023-01-21T07:54:31.068Z,99202.53
2023-01-21T07:56:58.073Z,99212.19
2023-01-21T07:59:24.775Z,99220.81
2023-01-21T08:01:51.692Z,99222.75
2023-01-21T08:04:18.418Z,99234.13
2023-01-21T08:06:45.126Z,99231.69
2023-01-21T08:09:11.828Z,99227.09
2023-01-21T08:11:38.506Z,99231.53
2023-01-21T08:14:05.661Z,99242.66
2023-01-21T08:16:32.355Z,99242.03
2023-01-21T08:18:59.193Z,99244.72
2023-01-21T08:21:26.202Z,99243.22
2023-01-21T08:23:52.846Z,99243.84
2023-01-21T08:26:19.553Z,99239.28
2023-01-21T08:28:46.153Z,99236.53
2023-01-21T08:31:13.648Z,99247.81
2023-01-21T08:33:40.728Z,99250.47
2023-01-21T08:36:08.626Z,99251.03
2023-01-21T08:38:35.783Z,99260.28
2023-01-21T08:41:02.430Z,99267.69
2023-01-21T08:43:29.453Z,99264.31
2023-01-21T08:45:57.261Z,99269.63
2023-01-21T08:48:24.262Z,99266.16
2023-01-21T08:50:51.038Z,99270.72
2023-01-21T08:53:17.841Z,99275.69
2023-01-21T08:55:44.593Z,99282.56
2023-01-21T08:58:11.984Z,99285.59
2023-01-21T09:00:38.780Z,99289.09
2023-01-21T09:03:05.425Z,99291.75
2023-01-21T09:05:32.153Z,99300.91
2023-01-21T09:07:58.926Z,99296.28
2023-01-21T09:10:48.916Z,99305.66
2023-01-21T09:13:16.266Z,99304.72
2023-01-21T09:15:43.795Z,99299.16
2023-01-21T09:18:11.540Z,99299.63
2023-01-21T09:20:39.748Z,99302.84
2023-01-21T09:23:26.625Z,99303.00
2023-01-21T09:26:07.763Z,99311.34
2023-01-21T09:28:37.536Z,99313.53
2023-01-21T09:31:06.706Z,99317.66
2023-01-21T09:33:36.431Z,99329.88
2023-01-21T09:36:06.167Z,99323.16
2023-01-21T09:38:33.790Z,99325.53
2023-01-21T09:41:18.885Z,99320.69
2023-01-21T09:44:27.425Z,99328.69
2023-01-21T09:47:09.068Z,99324.44
2023-01-21T09:49:43.573Z,99331.78
2023-01-21T09:52:42.943Z,99330.63
2023-01-21T09:55:15.687Z,99334.50
2023-01-21T09:58:24.006Z,99344.69
2023-01-21T10:01:10.685Z,99345.09
2023-01-21T10:03:52.793Z,99342.97
2023-01-21T10:06:38.535Z,99339.94
2023-01-21T10:09:45.457Z,99343.53
2023-01-21T10:12:36.763Z,99346.19
2023-01-21T10:15:15.881Z,99347.69
2023-01-21T10:17:58.054Z,99343.38
2023-01-21T10:20:30.141Z,99342.66
2023-01-21T10:23:13.499Z,99327.88
2023-01-21T10:25:41.074Z,99319.66
2023-01-21T10:28:20.972Z,99307.81
2023-01-21T10:30:51.827Z,99306.16
2023-01-21T10:33:25.094Z,99299.00
2023-01-21T10:36:07.275Z,99298.66
2023-01-21T10:38:40.915Z,99304.31
2023-01-21T10:41:22.797Z,99321.91
2023-01-21T10:43:58.539Z,99331.53
2023-01-21T10:46:37.552Z,99350.97
2023-01-21T10:49:36.653Z,99365.66
2023-01-21T10:52:06.529Z,99370.06
2023-01-21T10:54:45.187Z,99378.59
2023-01-21T10:57:30.983Z,99376.84
2023-01-21T11:00:02.457Z,99374.66
2023-01-21T11:02:33.769Z,99384.47
2023-01-21T11:05:03.925Z,99372.50
2023-01-21T11:07:39.861Z,99370.16
2023-01-21T11:10:07.701Z,99376.28
2023-01-21T11:12:34.696Z,99371.78
2023-01-21T11:15:07.696Z,99364.72
2023-01-21T11:17:37.790Z,99370.81
2023-01-21T11:20:16.977Z,99371.56
2023-01-21T11:22:45.539Z,99369.94
2023-01-21T11:25:26.381Z,99368.53
2023-01-21T11:27:53.035Z,99364.44
2023-01-21T11:30:51.999Z,99359.56
2023-01-21T11:33:18.831Z,99362.97
2023-01-21T11:35:46.072Z,99362.28
2023-01-21T11:38:33.111Z,99359.75
2023-01-21T11:41:16.091Z,99362.53
2023-01-21T11:43:52.209Z,99362.09
2023-01-21T11:46:30.227Z,99355.66
2023-01-21T11:49:12.268Z,99352.56
2023-01-21T11:51:41.095Z,99350.63
2023-01-21T11:54:13.460Z,99346.25
2023-01-21T11:56:45.363Z,99343.19
2023-01-21T11:59:50.841Z,99345.47
2023-01-21T12:02:31.178Z,99334.31
2023-01-21T12:05:04.889Z,99344.06
2023-01-21T12:07:35.232Z,99323.91
2023-01-21T12:10:20.110Z,99323.88
2023-01-21T12:13:14.201Z,99306.50
2023-01-21T12:16:06.002Z,99317.78
2023-01-21T12:18:54.617Z,99307.41
2023-01-21T12:21:42.500Z,99314.91
2023-01-21T12:24:34.213Z,99309.28
2023-01-21T12:27:09.208Z,99301.13
2023-01-21T12:29:48.538Z,99296.88
2023-01-21T12:32:23.623Z,99294.31
2023-01-21T12:35:08.230Z,99292.56
2023-01-21T12:38:03.777Z,99292.41
2023-01-21T12:40:40.078Z,99296.78
2023-01-21T12:43:26.351Z,99300.09
2023-01-21T12:46:03.398Z,99304.16
2023-01-21T12:48:34.959Z,99308.56
2023-01-21T12:51:08.197Z,99308.78
2023-01-21T12:53:45.129Z,99311.88
2023-01-21T12:56:18.018Z,99312.22
2023-01-21T12:58:57.016Z,99308.16
2023-01-21T13:01:41.653Z,99308.16
2023-01-21T13:04:20.965Z,99313.81
2023-01-21T13:06:56.125Z,99317.47
2023-01-21T13:09:44.029Z,99318.25
2023-01-21T13:12:26.235Z,99316.97
2023-01-21T13:15:00.910Z,99319.03
2023-01-21T13:17:35.387Z,99333.63
2023-01-21T13:20:13.627Z,99325.94
2023-01-21T13:22:47.206Z,99340.44
2023-01-21T13:25:24.472Z,99350.25
2023-01-21T13:27:51.042Z,99351.41
2023-01-21T13:30:29.109Z,99344.66
2023-01-21T13:33:17.085Z,99348.09
2023-01-21T13:36:22.677Z,99346.25
2023-01-21T13:39:10.004Z,99353.31
2023-01-21T13:41:55.123Z,99357.50
2023-01-21T13:44:54.592Z,99366.06
2023-01-21T13:47:31.965Z,99364.66
2023-01-21T13:50:17.955Z,99371.63
2023-01-21T13:53:17.669Z,99362.31
2023-01-21T13:56:02.939Z,99368.81
2023-01-21T13:58:43.114Z,99375.47
2023-01-21T14:01:18.750Z,99381.78
2023-01-21T14:03:50.446Z,99380.22
2023-01-21T14:06:26.915Z,99391.81
2023-01-21T14:08:59.437Z,99407.66
2023-01-21T14:11:33.318Z,99409.81
2023-01-21T14:14:09.948Z,99410.16
2023-01-21T14:16:48.808Z,99416.81
2023-01-21T14:19:48.560Z,99421.19
2023-01-21T14:22:36.583Z,99424.06
2023-01-21T14:25:30.975Z,99427.38
2023-01-21T14:28:06.428Z,99430.06
2023-01-21T14:30:47.939Z,99440.16
2023-01-21T14:33:23.552Z,99440.53
2023-01-21T14:36:05.036Z,99427.03
2023-01-21T14:38:40.711Z,99431.28
2023-01-21T14:41:09.839Z,99436.28
2023-01-21T14:43:36.603Z,99434.56
2023-01-21T14:46:23.115Z,99438.75
2023-01-21T14:48:58.409Z,99444.03
2023-01-21T14:51:28.920Z,99443.78
2023-01-21T14:54:13.026Z,99440.59
2023-01-21T14:56:39.906Z,99442.41
2023-01-21T14:59:25.580Z,99454.81
2023-01-21T15:02:03.274Z,99452.03
2023-01-21T15:04:40.241Z,99453.06
2023-01-21T15:07:13.046Z,99450.69
2023-01-21T15:09:43.983Z,99448.66
2023-01-21T15:12:22.535Z,99459.22
2023-01-21T15:14:50.020Z,99460.59
2023-01-21T15:17:44.783Z,99462.88
2023-01-21T15:20:44.746Z,99460.44
2023-01-21T15:23:29.535Z,99458.25
2023-01-21T15:26:03.153Z,99455.69
2023-01-21T15:28:59.607Z,99459.09
2023-01-21T15:31:26.248Z,99467.16
2023-01-21T15:34:00.711Z,99467.81
2023-01-21T15:36:27.504Z,99475.03
2023-01-21T15:39:02.329Z,99480.94
2023-01-21T15:41:38.528Z,99480.19
2023-01-21T15:44:37.685Z,99478.56
2023-01-21T15:47:29.431Z,99480.19
2023-01-21T15:50:23.622Z,99475.56
2023-01-21T15:53:06.722Z,99488.00
2023-01-21T15:55:45.553Z,99482.88
2023-01-21T15:59:00.652Z,99483.03
2023-01-21T16:01:37.260Z,99482.88
2023-01-21T16:04:40.806Z,99480.94
2023-01-21T16:07:34.089Z,99486.09
2023-01-21T16:10:17.906Z,99492.16
2023-01-21T16:13:14.519Z,99480.84
2023-01-21T16:15:49.962Z,99488.34
2023-01-21T16:18:22.878Z,99488.44
2023-01-21T16:20:53.254Z,99488.34
2023-01-21T16:23:22.853Z,99495.97
2023-01-21T16:25:52.703Z,99494.22
2023-01-21T16:28:21.372Z,99489.78
2023-01-21T16:31:06.201Z,99483.91
2023-01-21T16:33:32.900Z,99496.19
2023-01-21T16:36:05.826Z,99500.59
2023-01-21T16:38:34.163Z,99500.66
2023-01-21T16:41:06.889Z,99504.25
2023-01-21T16:43:48.979Z,99499.78
2023-01-21T16:46:18.291Z,99499.00
2023-01-21T16:48:50.247Z,99501.41
2023-01-21T16:51:23.648Z,99503.13
2023-01-21T16:53:53.909Z,99509.31
2023-01-21T16:56:29.389Z,99503.25
2023-01-21T16:58:56.379Z,99508.59
2023-01-21T17:01:26.422Z,99503.50
2023-01-21T17:03:53.332Z,99496.34
2023-01-21T17:06:25.791Z,99514.59
2023-01-21T17:09:05.008Z,99508.50
2023-01-21T17:11:32.869Z,99512.91
2023-01-21T17:14:07.505Z,99522.50
2023-01-21T17:16:36.875Z,99525.91
2023-01-21T17:19:08.264Z,99526.97
2023-01-21T17:21:44.062Z,99527.91
2023-01-21T17:24:23.773Z,99517.47
2023-01-21T17:26:54.026Z,99513.03
2023-01-21T17:29:26.291Z,99512.91
2023-01-21T17:32:26.835Z,99516.56
2023-01-21T17:35:08.952Z,99516.56
2023-01-21T17:37:55.227Z,99516.72
2023-01-21T17:40:35.455Z,99518.41
2023-01-21T17:43:30.121Z,99518.50
2023-01-21T17:45:57.976Z,99515.75
2023-01-21T17:48:48.864Z,99524.50
2023-01-21T17:51:15.639Z,99513.09
2023-01-21T17:53:49.512Z,99519.00
2023-01-21T17:56:34.536Z,99525.91
2023-01-21T17:59:04.121Z,99530.91
2023-01-21T18:01:31.210Z,99517.06
2023-01-21T18:03:57.928Z,99525.84
2023-01-21T18:06:27.713Z,99524.16
2023-01-21T18:08:57.038Z,99517.06
2023-01-21T18:11:23.786Z,99520.47
2023-01-21T18:13:51.346Z,99516.28
2023-01-21T18:16:18.123Z,99524.00
2023-01-21T18:18:45.091Z,99529.41
2023-01-21T18:21:18.891Z,99521.69
2023-01-21T18:23:46.355Z,99524.38
2023-01-21T18:26:26.346Z,99513.94
2023-01-21T18:28:53.175Z,99518.50
2023-01-21T18:31:20.141Z,99523.78
2023-01-21T18:33:46.916Z,99519.47
2023-01-21T18:36:13.537Z,99528.56
2023-01-21T18:38:40.245Z,99539.44
2023-01-21T18:41:08.860Z,99543.22
2023-01-21T18:43:35.640Z,99537.97
2023-01-21T18:46:02.514Z,99538.91
2023-01-21T18:48:31.046Z,99528.53
2023-01-21T18:50:57.741Z,99533.75
2023-01-21T18:53:25.557Z,99541.47
2023-01-21T18:55:55.833Z,99543.38
2023-01-21T18:58:22.577Z,99540.09
2023-01-21T19:00:49.581Z,99535.63
2023-01-21T19:03:16.604Z,99536.22
2023-01-21T19:05:47.555Z,99536.50
2023-01-21T19:08:21.600Z,99530.63
2023-01-21T19:10:48.218Z,99534.09
2023-01-21T19:13:14.853Z,99534.88
2023-01-21T19:15:41.893Z,99535.38
2023-01-21T19:18:13.418Z,99541.47
2023-01-21T19:20:41.520Z,99539.63
2023-01-21T19:23:15.581Z,99531.94
2023-01-21T19:25:46.758Z,99528.53
2023-01-21T19:28:13.387Z,99535.56
2023-01-21T19:30:44.966Z,99528.56
2023-01-21T19:33:12.371Z,99525.88
2023-01-21T19:35:42.538Z,99523.09
2023-01-21T19:38:16.147Z,99526.72
2023-01-21T19:40:42.965Z,99521.31
2023-01-21T19:43:14.731Z,99525.03
2023-01-21T19:45:41.878Z,99519.31
2023-01-21T19:48:17.388Z,99517.53
2023-01-21T19:50:44.325Z,99510.66
2023-01-21T19:53:15.245Z,99512.31
2023-01-21T19:55:43.523Z,99509.47
2023-01-21T19:58:15.632Z,99516.22
2023-01-21T20:00:42.262Z,99520.38
2023-01-21T20:03:12.765Z,99521.97
2023-01-21T20:05:39.882Z,99521.97
2023-01-21T20:08:09.409Z,99514.88
2023-01-21T20:10:36.168Z,99523.56
2023-01-21T20:13:02.829Z,99523.56
2023-01-21T20:15:34.207Z,99520.09
2023-01-21T20:18:03.231Z,99518.44
2023-01-21T20:20:33.435Z,99517.69
2023-01-21T20:23:01.165Z,99524.88
2023-01-21T20:25:37.230Z,99529.13
2023-01-21T20:28:14.705Z,99530.75
2023-01-21T20:30:41.367Z,99527.09
2023-01-21T20:33:13.648Z,99532.88
2023-01-21T20:35:40.621Z,99533.78
2023-01-21T20:38:13.249Z,99538.97
2023-01-21T20:40:40.285Z,99544.09
2023-01-21T20:43:07.403Z,99531.06
2023-01-21T20:45:48.722Z,99537.13
2023-01-21T20:48:18.750Z,99537.91
2023-01-21T20:50:46.353Z,99537.03
2023-01-21T20:53:13.063Z,99525.72
2023-01-21T20:55:40.578Z,99523.91
2023-01-21T20:58:07.460Z,99529.09
2023-01-21T21:00:35.006Z,99524.91
2023-01-21T21:03:02.383Z,99524.00
2023-01-21T21:05:29.178Z,99523.09
2023-01-21T21:07:55.861Z,99525.78
2023-01-21T21:10:30.813Z,99530.06
2023-01-21T21:12:58.805Z,99526.59
2023-01-21T21:15:33.876Z,99525.69
2023-01-21T21:18:01.311Z,99511.03
2023-01-21T21:20:34.124Z,99516.28
2023-01-21T21:23:01.362Z,99508.66
2023-01-21T21:25:30.327Z,99504.34
2023-01-21T21:27:57.059Z,99509.63
2023-01-21T21:30:27.579Z,99500.97
2023-01-21T21:32:56.573Z,99499.16
2023-01-21T21:35:27.365Z,99496.63
2023-01-21T21:37:55.960Z,99495.75
2023-01-21T21:40:25.027Z,99495.72
2023-01-21T21:43:10.297Z,99497.28
2023-01-21T21:45:37.515Z,99491.34
2023-01-21T21:48:23.462Z,99477.41
2023-01-21T21:50:57.528Z,99478.28
2023-01-21T21:53:24.366Z,99476.50
2023-01-21T21:55:51.034Z,99466.81
2023-01-21T21:58:17.766Z,99473.72
2023-01-21T22:00:44.744Z,99464.13
2023-01-21T22:03:12.570Z,99466.56
2023-01-21T22:05:39.202Z,99456.97
2023-01-21T22:08:06.344Z,99475.84
2023-01-21T22:10:32.972Z,99472.94
2023-01-21T22:12:59.613Z,99473.69
2023-01-21T22:15:26.213Z,99486.13
2023-01-21T22:17:52.820Z,99484.41
2023-01-21T22:20:19.551Z,99484.31
2023-01-21T22:22:46.156Z,99484.25
2023-01-21T22:25:13.203Z,99486.84
2023-01-21T22:27:39.844Z,99478.41
2023-01-21T22:30:07.093Z,99482.72
2023-01-21T22:32:33.700Z,99478.31
2023-01-21T22:35:00.325Z,99474.81
2023-01-21T22:37:26.952Z,99466.84
2023-01-21T22:39:53.683Z,99464.72
2023-01-21T22:42:20.444Z,99458.28
2023-01-21T22:44:47.144Z,99461.84
2023-01-21T22:47:13.753Z,99465.44
2023-01-21T22:49:40.495Z,99460.31
2023-01-21T22:52:07.412Z,99463.38
2023-01-21T22:54:34.168Z,99466.28
2023-01-21T22:57:00.829Z,99466.09
2023-01-21T22:59:27.436Z,99472.97
2023-01-21T23:01:54.215Z,99460.88
2023-01-21T23:04:20.843Z,99457.34
2023-01-21T23:06:48.631Z,99455.75
2023-01-21T23:09:18.335Z,99458.47
2023-01-21T23:11:45.134Z,99454.19
2023-01-21T23:14:12.021Z,99447.94
2023-01-21T23:16:39.218Z,99451.53
2023-01-21T23:19:05.905Z,99441.09
2023-01-21T23:21:32.987Z,99443.94
2023-01-21T23:23:59.634Z,99431.81
2023-01-21T23:26:26.270Z,99424.75
2023-01-21T23:28:57.495Z,99428.22
2023-01-21T23:31:25.082Z,99428.25
2023-01-21T23:33:53.098Z,99423.84
2023-01-21T23:36:20.258Z,99416.91
2023-01-21T23:38:46.934Z,99421.31
2023-01-21T23:41:16.981Z,99420.25
2023-01-21T23:43:43.810Z,99429.81
2023-01-21T23:46:16.548Z,99421.00
2023-01-21T23:48:43.503Z,99425.31
2023-01-21T23:51:12.733Z,99423.69
2023-01-21T23:53:39.731Z,99427.34
2023-01-21T23:56:10.422Z,99420.16
2023-01-21T23:58:37.147Z,99417.66
